Time;durP1;ratioP1;P1;durP2;ratioP2;P2;SDS_P1;SDS_P2;PMS_P1;PMS_P2;Temp;Humidity;BMP_temperature;BMP_pressure;BME280_temperature;BME280_humidity;BME280_pressure;Samples;Min_cycle;Max_cycle;Signal;HPM_P1;HPM_P2
2024/02/16 00:01:06;;;;;;;13.98;7.72;;;;;;;6.95;69.03;100683.38;5033910;28;20025;-78
2024/02/16 00:03:31;;;;;;;16.40;8.68;;;;;;;6.85;69.94;100665.06;5049779;28;20402;-79
2024/02/16 00:05:56;;;;;;;16.50;8.95;;;;;;;6.89;67.80;100657.59;5050656;28;20017;-79
2024/02/16 00:08:22;;;;;;;12.88;7.85;;;;;;;6.70;68.46;100657.09;5039899;28;20391;-79
2024/02/16 00:10:48;;;;;;;16.27;8.00;;;;;;;6.57;68.28;100659.50;5030976;28;20110;-78
2024/02/16 00:13:14;;;;;;;18.73;8.93;;;;;;;6.84;69.47;100693.41;5030020;28;20127;-79
2024/02/16 00:15:39;;;;;;;17.50;8.82;;;;;;;6.88;67.87;100690.38;5029621;28;20148;-79
2024/02/16 00:18:06;;;;;;;14.57;8.48;;;;;;;6.92;68.75;100696.97;5029057;28;20030;-78
2024/02/16 00:20:31;;;;;;;14.55;8.93;;;;;;;6.78;69.88;100694.13;5029833;28;20111;-79
2024/02/16 00:22:57;;;;;;;12.35;8.02;;;;;;;6.73;70.04;100677.91;5031012;28;20613;-78
2024/02/16 00:25:23;;;;;;;13.65;8.45;;;;;;;6.84;69.09;100704.00;5028937;28;20029;-78
2024/02/16 00:27:50;;;;;;;13.82;8.23;;;;;;;6.77;69.68;100684.50;5028412;28;20111;-79
2024/02/16 00:30:17;;;;;;;15.00;7.88;;;;;;;6.79;69.35;100676.38;5029364;28;20029;-79
2024/02/16 00:32:45;;;;;;;14.13;7.32;;;;;;;6.84;69.08;100676.66;5028164;28;20600;-78
2024/02/16 00:35:11;;;;;;;16.37;7.97;;;;;;;6.90;68.25;100686.53;5027708;28;20478;-78
2024/02/16 00:37:37;;;;;;;15.00;7.57;;;;;;;6.88;68.57;100682.44;5027425;28;20264;-79
2024/02/16 00:40:04;;;;;;;14.55;7.85;;;;;;;6.66;69.23;100674.34;5028666;28;20057;-79
2024/02/16 00:42:31;;;;;;;15.18;8.25;;;;;;;6.68;68.87;100672.34;5027838;28;20041;-79
2024/02/16 00:44:57;;;;;;;14.50;7.28;;;;;;;6.63;69.62;100690.59;5028447;28;20024;-79
2024/02/16 00:47:23;;;;;;;14.82;8.07;;;;;;;6.72;69.45;100688.69;5027590;28;20545;-79
2024/02/16 00:49:49;;;;;;;14.27;7.72;;;;;;;6.46;69.38;100663.41;5028230;28;20436;-79
2024/02/16 00:52:14;;;;;;;14.48;8.15;;;;;;;6.77;68.00;100696.94;5028258;28;20033;-79
2024/02/16 00:54:40;;;;;;;18.73;9.40;;;;;;;6.58;68.51;100682.38;5028135;28;20037;-79
2024/02/16 00:57:05;;;;;;;13.27;8.25;;;;;;;6.61;68.59;100682.00;5027778;28;20045;-78
2024/02/16 00:59:31;;;;;;;18.55;8.93;;;;;;;6.27;69.94;100669.97;5015276;28;20026;-78
2024/02/16 01:01:56;;;;;;;15.93;9.02;;;;;;;6.32;69.89;100672.94;5016529;28;20505;-79
2024/02/16 01:04:22;;;;;;;14.05;8.02;;;;;;;6.44;69.64;100682.13;5026582;28;20060;-78
2024/02/16 01:06:48;;;;;;;18.35;8.35;;;;;;;6.56;69.50;100684.34;5007259;28;20026;-79
2024/02/16 01:09:13;;;;;;;14.27;8.10;;;;;;;6.37;70.18;100665.25;5016627;28;20046;-80
2024/02/16 01:11:42;;;;;;;18.85;8.98;;;;;;;6.45;70.30;100682.94;5016446;28;20087;-80
2024/02/16 01:14:08;;;;;;;18.25;9.05;;;;;;;6.48;69.55;100665.84;5008278;28;20092;-80
2024/02/16 01:16:34;;;;;;;13.02;7.93;;;;;;;6.42;70.04;100678.81;4965841;28;1281841;-80
2024/02/16 01:18:59;;;;;;;11.13;6.60;;;;;;;6.27;70.71;100669.97;5026456;28;20509;-80
2024/02/16 01:21:25;;;;;;;12.65;7.53;;;;;;;6.38;69.91;100658.16;5029206;28;20461;-79
2024/02/16 01:23:50;;;;;;;13.65;7.72;;;;;;;6.42;71.06;100676.16;5021287;28;20030;-79
2024/02/16 01:26:15;;;;;;;12.45;6.50;;;;;;;6.47;70.13;100666.88;5009457;28;20112;-79
2024/02/16 01:28:41;;;;;;;10.75;6.85;;;;;;;6.51;70.57;100633.72;5021131;28;20104;-79
2024/02/16 01:31:09;;;;;;;12.82;7.07;;;;;;;6.87;70.04;100681.63;5030116;28;20486;-79
2024/02/16 01:33:35;;;;;;;;;;;;;;;6.87;69.11;100680.78;5030871;28;20036;-80
2024/02/16 01:36:02;;;;;;;18.98;8.68;;;;;;;6.62;69.27;100662.44;5033586;28;19909;-79
2024/02/16 01:38:27;;;;;;;16.40;8.63;;;;;;;6.80;68.47;100676.22;5028640;28;20454;-80
2024/02/16 01:40:52;;;;;;;12.85;7.20;;;;;;;6.41;69.38;100648.00;5029510;28;20542;-80
2024/02/16 01:43:21;;;;;;;14.07;7.28;;;;;;;6.35;69.82;100645.25;5029552;28;20035;-80
2024/02/16 01:45:47;;;;;;;13.95;7.32;;;;;;;6.43;69.17;100669.03;5030347;28;20474;-79
2024/02/16 01:48:15;;;;;;;14.05;7.07;;;;;;;6.43;68.71;100664.56;5029551;28;20029;-79
2024/02/16 01:50:43;;;;;;;12.73;7.53;;;;;;;6.33;69.35;100656.00;5029114;28;20627;-79
2024/02/16 01:53:11;;;;;;;14.50;6.82;;;;;;;6.20;70.18;100647.84;5028560;28;20037;-80
2024/02/16 01:55:36;;;;;;;11.77;6.80;;;;;;;6.13;69.40;100626.53;5029069;28;20136;-79
2024/02/16 01:58:03;;;;;;;12.70;6.80;;;;;;;6.26;70.17;100657.75;5029486;28;20065;-80
2024/02/16 02:00:28;;;;;;;11.88;6.90;;;;;;;6.27;69.62;100654.06;5027840;28;20533;-80
2024/02/16 02:02:54;;;;;;;12.88;6.63;;;;;;;6.52;69.21;100667.13;5017451;28;20048;-80
2024/02/16 02:05:19;;;;;;;11.00;6.13;;;;;;;6.37;69.37;100659.16;5027902;28;20026;-79
2024/02/16 02:07:44;;;;;;;11.63;6.60;;;;;;;6.17;69.58;100646.38;5012594;28;20032;-79
2024/02/16 02:10:14;;;;;;;12.55;6.65;;;;;;;6.24;69.29;100646.50;5019313;28;20106;-79
2024/02/16 02:12:40;;;;;;;11.80;6.30;;;;;;;6.20;68.83;100631.97;5014411;28;20033;-79
2024/02/16 02:15:05;;;;;;;12.30;6.35;;;;;;;6.23;69.87;100634.25;5027840;28;20049;-79
2024/02/16 02:17:31;;;;;;;15.55;7.93;;;;;;;6.36;68.96;100639.78;5027620;28;20532;-80
2024/02/16 02:19:56;;;;;;;14.50;6.72;;;;;;;6.11;69.16;100611.81;5027726;28;20017;-79
2024/02/16 02:22:22;;;;;;;13.07;6.45;;;;;;;6.47;68.46;100650.97;5027752;28;20037;-79
2024/02/16 02:24:51;;;;;;;10.30;6.28;;;;;;;6.22;69.21;100632.59;5027778;28;20449;-80
2024/02/16 02:27:16;;;;;;;14.43;6.90;;;;;;;6.08;69.23;100606.88;5027879;28;20060;-79
2024/02/16 02:29:44;;;;;;;12.35;6.00;;;;;;;6.34;68.65;100649.72;5027929;28;20028;-79
2024/02/16 02:32:09;;;;;;;13.30;6.60;;;;;;;6.22;69.17;100632.59;5027526;28;20693;-79
2024/02/16 02:34:36;;;;;;;10.57;5.93;;;;;;;6.18;69.53;100639.25;5028578;28;20037;-80
2024/02/16 02:37:02;;;;;;;12.55;6.88;;;;;;;6.51;69.59;100665.50;5025688;28;20030;-80
2024/02/16 02:39:27;;;;;;;9.38;5.18;;;;;;;6.56;67.97;100657.84;5023307;28;20026;-80
2024/02/16 02:41:52;;;;;;;10.45;6.10;;;;;;;6.54;69.47;100662.50;5027963;28;20919;-79
2024/02/16 02:44:19;;;;;;;10.40;6.07;;;;;;;6.33;69.94;100652.56;5025758;28;20021;-79
2024/02/16 02:46:44;;;;;;;9.52;5.65;;;;;;;6.36;69.98;100668.09;5027607;28;20056;-79
2024/02/16 02:49:10;;;;;;;10.45;5.65;;;;;;;6.49;70.26;100678.09;5024739;28;20501;-79
2024/02/16 02:51:35;;;;;;;9.85;6.28;;;;;;;6.32;69.96;100657.03;5027600;28;20041;-79
2024/02/16 02:54:01;;;;;;;10.40;5.55;;;;;;;6.27;70.29;100648.78;5021503;28;20025;-80
2024/02/16 02:56:26;;;;;;;10.75;5.72;;;;;;;6.40;69.75;100654.31;5018660;28;20041;-80
2024/02/16 02:58:51;;;;;;;12.70;5.78;;;;;;;6.43;69.60;100663.75;5027429;28;20039;-80
2024/02/16 03:01:20;;;;;;;14.63;6.93;;;;;;;6.46;69.15;100670.50;5025902;28;20025;-79
2024/02/16 03:03:46;;;;;;;;;;;;;;;6.66;68.79;100670.84;5030189;28;20044;-79
2024/02/16 03:06:12;;;;;;;14.10;7.10;;;;;;;6.57;68.56;100664.78;5027307;28;19920;-80
2024/02/16 03:08:37;;;;;;;15.35;7.78;;;;;;;6.24;68.86;100646.50;5025890;28;20038;-79
2024/02/16 03:11:04;;;;;;;12.02;6.60;;;;;;;6.33;68.95;100653.38;5025865;28;20673;-79
2024/02/16 03:13:29;;;;;;;11.20;5.75;;;;;;;6.27;70.19;100667.31;5028336;28;20584;-80
2024/02/16 03:15:55;;;;;;;10.18;5.75;;;;;;;6.23;69.68;100655.41;5027053;28;20547;-80
2024/02/16 03:18:20;;;;;;;13.45;6.95;;;;;;;6.33;68.66;100669.25;5027218;28;20462;-80
2024/02/16 03:20:48;;;;;;;15.68;6.90;;;;;;;6.29;69.34;100662.66;5025986;28;20048;-79
2024/02/16 03:23:14;;;;;;;9.77;6.07;;;;;;;6.40;69.24;100680.81;5029016;28;20088;-80
2024/02/16 03:25:40;;;;;;;14.05;6.70;;;;;;;6.34;69.01;100670.09;5027332;28;20037;-80
2024/02/16 03:28:10;;;;;;;10.40;6.03;;;;;;;6.27;69.99;100667.31;5010899;28;20033;-79
2024/02/16 03:30:35;;;;;;;13.43;7.45;;;;;;;6.35;69.61;100683.16;5012197;28;20118;-80
2024/02/16 03:33:00;;;;;;;13.77;7.63;;;;;;;6.28;69.99;100692.81;5026833;28;21075;-79
2024/02/16 03:35:27;;;;;;;14.63;7.60;;;;;;;6.01;70.37;100646.47;5026786;28;20052;-79
2024/02/16 03:37:52;;;;;;;14.75;7.50;;;;;;;5.86;71.61;100662.22;5013139;28;20037;-79
2024/02/16 03:40:18;;;;;;;13.43;7.20;;;;;;;5.97;70.92;100683.06;5020107;28;20032;-79
2024/02/16 03:42:46;;;;;;;16.83;8.48;;;;;;;5.89;71.47;100677.78;5021240;28;20018;-79
2024/02/16 03:45:11;;;;;;;10.35;6.10;;;;;;;5.93;71.19;100672.97;5024630;28;20041;-79
2024/02/16 03:47:36;;;;;;;17.40;7.82;;;;;;;6.12;71.28;100687.63;5014148;28;20038;-78
2024/02/16 03:50:06;;;;;;;15.65;7.30;;;;;;;5.83;71.70;100657.28;5007551;28;20029;-79
2024/02/16 03:52:31;;;;;;;12.82;7.13;;;;;;;5.79;71.95;100663.94;5006659;28;20025;-78
2024/02/16 03:54:57;;;;;;;11.40;6.35;;;;;;;6.10;71.36;100687.78;5021390;28;20044;-78
2024/02/16 03:57:22;;;;;;;12.18;7.20;;;;;;;6.13;71.47;100689.25;5006749;28;20037;-78
2024/02/16 03:59:48;;;;;;;11.25;6.25;;;;;;;5.96;72.28;100673.47;5010059;28;20041;-79
2024/02/16 04:02:13;;;;;;;9.70;5.85;;;;;;;5.88;72.39;100681.41;5022416;28;20551;-78
2024/02/16 04:04:39;;;;;;;12.05;6.95;;;;;;;6.03;71.61;100700.91;5026911;28;20052;-79
2024/02/16 04:07:06;;;;;;;12.25;6.88;;;;;;;5.92;70.92;100682.72;5027315;28;20532;-78
2024/02/16 04:09:32;;;;;;;14.47;6.90;;;;;;;5.95;71.89;100690.34;5026116;28;20030;-79
2024/02/16 04:11:58;;;;;;;12.45;6.55;;;;;;;5.91;71.60;100683.72;5025918;28;20483;-79
2024/02/16 04:14:23;;;;;;;14.88;7.22;;;;;;;5.86;72.50;100688.69;5030049;28;20040;-78
2024/02/16 04:16:49;;;;;;;9.98;5.53;;;;;;;5.78;72.37;100686.09;5031739;28;20068;-79
2024/02/16 04:19:14;;;;;;;11.02;6.00;;;;;;;5.92;72.50;100692.47;5033831;28;20029;-79
2024/02/16 04:21:40;;;;;;;10.43;5.88;;;;;;;5.96;72.52;100702.59;5039784;28;20036;-79
2024/02/16 04:24:05;;;;;;;10.20;5.60;;;;;;;5.68;73.29;100672.25;5049562;28;20475;-79
2024/02/16 04:26:31;;;;;;;10.45;5.55;;;;;;;5.67;73.67;100694.41;5031419;28;20402;-79
2024/02/16 04:28:56;;;;;;;9.38;6.18;;;;;;;5.78;73.84;100705.47;5029872;28;20025;-79
2024/02/16 04:31:24;;;;;;;11.38;5.60;;;;;;;5.63;73.63;100686.81;5034331;28;20026;-79
2024/02/16 04:33:49;;;;;;;10.95;6.05;;;;;;;5.76;73.30;100696.88;5039472;28;20048;-80
2024/02/16 04:36:15;;;;;;;12.75;6.88;;;;;;;5.88;73.17;100713.19;5042036;28;20037;-80
2024/02/16 04:38:41;;;;;;;11.85;5.90;;;;;;;5.91;73.21;100718.13;5038532;28;20033;-80
2024/02/16 04:41:06;;;;;;;10.68;6.43;;;;;;;5.76;72.48;100678.34;5039158;28;20056;-81
2024/02/16 04:43:32;;;;;;;12.15;6.15;;;;;;;5.96;72.83;100715.81;5039830;28;20038;-80
2024/02/16 04:45:57;;;;;;;10.15;5.53;;;;;;;5.73;72.31;100664.63;5040773;28;20029;-80
2024/02/16 04:48:23;;;;;;;8.70;5.43;;;;;;;5.64;73.14;100675.25;5028618;28;20054;-79
2024/02/16 04:50:48;;;;;;;10.52;5.38;;;;;;;5.87;72.75;100706.25;5018644;28;20026;-79
2024/02/16 04:53:14;;;;;;;12.18;4.95;;;;;;;5.80;72.73;100689.38;5024046;28;20030;-79
2024/02/16 04:55:39;;;;;;;8.60;5.05;;;;;;;5.77;73.89;100700.34;5030907;28;20033;-79
2024/02/16 04:58:09;;;;;;;9.88;5.18;;;;;;;5.84;72.84;100702.13;5036182;28;20026;-79
2024/02/16 05:00:34;;;;;;;9.10;5.63;;;;;;;5.81;72.85;100693.69;5037483;28;20025;-79
2024/02/16 05:03:00;;;;;;;10.43;4.88;;;;;;;6.04;71.70;100721.06;5035332;28;20038;-79
2024/02/16 05:05:25;;;;;;;9.00;5.18;;;;;;;6.05;71.75;100729.88;5035344;28;20040;-80
2024/02/16 05:07:50;;;;;;;11.60;6.68;;;;;;;5.86;70.28;100712.53;5032627;28;20065;-80
2024/02/16 05:10:16;;;;;;;11.15;5.88;;;;;;;5.83;71.16;100731.41;5032075;28;20424;-79
2024/02/16 05:12:42;;;;;;;11.13;5.93;;;;;;;5.50;71.20;100683.06;5029864;28;20087;-80
2024/02/16 05:15:09;;;;;;;10.27;5.47;;;;;;;5.50;70.05;100683.91;5030439;28;20448;-79
2024/02/16 05:17:34;;;;;;;9.23;5.22;;;;;;;5.59;70.89;100719.09;5030876;28;20025;-80
2024/02/16 05:20:00;;;;;;;9.63;5.45;;;;;;;5.36;71.03;100676.66;5029607;28;20681;-80
2024/02/16 05:22:25;;;;;;;8.95;5.55;;;;;;;5.75;70.28;100729.63;5027029;28;20033;-80
2024/02/16 05:24:51;;;;;;;8.75;4.72;;;;;;;5.75;70.14;100740.19;5013569;28;20029;-80
2024/02/16 05:27:16;;;;;;;9.88;5.10;;;;;;;5.70;70.00;100715.22;5028476;28;20037;-80
2024/02/16 05:29:42;;;;;;;8.43;4.25;;;;;;;5.77;70.08;100732.91;5029527;28;20481;-80
2024/02/16 05:32:07;;;;;;;13.98;5.05;;;;;;;5.64;70.19;100707.00;5029122;28;20036;-81
2024/02/16 05:34:37;;;;;;;10.00;5.50;;;;;;;5.83;69.47;100728.75;5028737;28;20030;-80
2024/02/16 05:37:06;;;;;;;10.40;4.50;;;;;;;5.84;68.28;100707.44;5030016;28;20502;-79
2024/02/16 05:39:43;;;;;;;9.30;5.45;;;;;;;6.11;69.17;100755.66;5028733;28;20498;-80
2024/02/16 05:42:09;;;;;;;11.05;5.63;;;;;;;5.96;68.13;100726.41;5028771;28;20033;-80
2024/02/16 05:44:34;;;;;;;10.38;6.13;;;;;;;6.17;68.23;100759.41;5028786;28;20477;-80
2024/02/16 05:47:00;;;;;;;14.43;5.63;;;;;;;6.03;68.09;100743.28;5028800;28;20053;-79
2024/02/16 05:49:25;;;;;;;10.73;5.55;;;;;;;5.92;68.16;100727.72;5028573;28;20033;-80
2024/02/16 05:54:40;;;;;;;10.65;5.38;;;;;;;6.08;68.56;100755.97;5020697;28;20042;-79
2024/02/16 05:57:08;;;;;;;11.18;5.50;;;;;;;5.97;67.87;100743.13;5028415;28;20033;-80
2024/02/16 05:59:34;;;;;;;;;;;;;;;6.08;68.62;100763.94;5028856;28;20132;-80
2024/02/16 06:01:59;;;;;;;11.20;5.82;;;;;;;5.81;68.39;100734.22;5028454;28;19917;-80
2024/02/16 06:04:24;;;;;;;9.80;4.95;;;;;;;6.00;67.78;100769.25;5026828;28;20030;-79
2024/02/16 06:06:50;;;;;;;10.68;5.25;;;;;;;5.94;69.96;100770.72;5040116;28;20044;-80
2024/02/16 06:09:15;;;;;;;10.68;6.07;;;;;;;5.92;67.99;100754.19;5048527;28;20035;-80
2024/02/16 06:11:41;;;;;;;11.60;5.60;;;;;;;5.79;68.94;100730.09;5047924;28;20036;-80
2024/02/16 06:14:06;;;;;;;10.48;6.05;;;;;;;5.89;68.86;100767.78;5029430;28;20538;-79
2024/02/16 06:16:31;;;;;;;12.98;7.10;;;;;;;5.74;69.42;100745.66;5026247;28;20115;-79
2024/02/16 06:18:57;;;;;;;12.05;6.65;;;;;;;5.97;68.83;100759.03;5028058;28;20104;-79
2024/02/16 06:21:22;;;;;;;19.45;11.82;;;;;;;5.86;69.80;100746.13;5027758;28;20037;-79
2024/02/16 06:23:48;;;;;;;21.40;11.65;;;;;;;6.15;67.85;100779.94;5043019;28;20033;-80
2024/02/16 06:26:13;;;;;;;25.88;16.13;;;;;;;5.85;69.26;100766.47;5038006;28;20414;-80
2024/02/16 06:28:38;;;;;;;35.83;18.08;;;;;;;6.04;68.63;100768.75;5026529;28;20083;-80
2024/02/16 06:31:04;;;;;;;20.10;10.10;;;;;;;6.13;68.79;100779.28;5027306;28;20037;-80
2024/02/16 06:33:29;;;;;;;14.05;7.70;;;;;;;6.03;68.87;100769.75;5025763;28;20065;-80
2024/02/16 06:35:55;;;;;;;15.02;7.18;;;;;;;6.18;69.68;100792.84;5027017;28;20120;-80
2024/02/16 06:38:20;;;;;;;12.32;7.22;;;;;;;6.17;68.24;100770.00;5026732;28;20030;-80
2024/02/16 06:40:46;;;;;;;16.05;7.70;;;;;;;5.89;68.71;100751.09;5026265;28;20124;-80
2024/02/16 06:43:11;;;;;;;15.43;7.88;;;;;;;6.00;68.08;100759.47;5035816;28;20033;-79
2024/02/16 06:45:37;;;;;;;13.88;6.68;;;;;;;6.07;67.87;100779.97;5045621;28;20126;-80
2024/02/16 06:48:02;;;;;;;16.13;8.20;;;;;;;6.25;67.54;100785.84;5027803;28;20037;-80
2024/02/16 06:50:28;;;;;;;14.95;7.60;;;;;;;6.32;68.48;100786.00;5026600;28;20087;-80
2024/02/16 06:52:55;;;;;;;17.42;9.85;;;;;;;6.46;67.14;100781.78;5024856;28;20029;-80
2024/02/16 06:55:20;;;;;;;13.18;7.28;;;;;;;6.33;67.91;100771.75;5027784;28;20034;-79
2024/02/16 06:57:46;;;;;;;17.27;7.07;;;;;;;6.36;67.67;100774.91;5027865;28;20037;-79
2024/02/16 07:00:13;;;;;;;10.00;6.10;;;;;;;6.40;66.78;100780.69;5027923;28;20048;-80
2024/02/16 07:02:38;;;;;;;13.73;7.45;;;;;;;6.49;67.14;100789.41;5026505;28;20025;-80
2024/02/16 07:05:04;;;;;;;13.60;7.78;;;;;;;6.42;67.92;100776.84;5027563;28;20065;-80
2024/02/16 07:07:29;;;;;;;12.27;6.35;;;;;;;6.71;66.29;100799.19;5029342;28;20030;-79
2024/02/16 07:09:55;;;;;;;12.18;6.80;;;;;;;6.81;66.88;100799.78;5016814;28;20041;-79
2024/02/16 07:12:21;;;;;;;12.70;6.35;;;;;;;6.61;66.24;100788.00;5006367;28;20022;-80
2024/02/16 07:14:49;;;;;;;15.80;7.28;;;;;;;6.49;66.70;100773.50;5023816;28;20505;-80
2024/02/16 07:17:15;;;;;;;;;;;;;;;6.96;66.50;100802.50;5027848;28;20080;-80
2024/02/16 07:19:40;;;;;;;13.95;7.32;;;;;;;6.74;66.22;100772.34;5034301;28;19955;-79
2024/02/16 07:22:09;;;;;;;20.20;9.60;;;;;;;7.01;65.33;100794.03;5038108;28;20615;-80
2024/02/16 07:24:35;;;;;;;30.27;13.07;;;;;;;6.99;65.08;100796.84;5031534;28;20041;-80
2024/02/16 07:27:01;;;;;;;30.90;13.68;;;;;;;7.20;64.99;100806.81;5026006;28;20033;-80
2024/02/16 07:29:27;;;;;;;24.23;10.90;;;;;;;7.16;64.49;100786.94;5027247;28;20033;-80
2024/02/16 07:31:53;;;;;;;13.18;7.80;;;;;;;7.44;63.74;100805.75;5026377;28;20025;-79
2024/02/16 07:34:19;;;;;;;19.88;9.02;;;;;;;7.47;64.21;100817.03;5035030;28;20037;-80
2024/02/16 07:36:45;;;;;;;24.75;11.77;;;;;;;7.51;63.66;100807.69;5027122;28;20068;-78
2024/02/16 07:39:12;;;;;;;27.10;14.00;;;;;;;7.64;63.54;100808.72;5027451;28;20053;-80
2024/02/16 07:41:38;;;;;;;21.05;11.15;;;;;;;7.64;64.58;100811.38;5027149;28;20021;-79
2024/02/16 07:44:04;;;;;;;15.55;8.55;;;;;;;7.65;63.11;100799.75;5028982;28;20038;-80
2024/02/16 07:46:29;;;;;;;24.50;11.48;;;;;;;7.57;64.48;100814.94;5013918;28;20463;-79
2024/02/16 07:48:55;;;;;;;22.50;12.40;;;;;;;7.54;63.99;100808.16;5023726;28;20037;-79
2024/02/16 07:51:21;;;;;;;19.33;11.23;;;;;;;7.63;63.34;100825.66;5030855;28;20236;-80
2024/02/16 07:53:46;;;;;;;16.35;9.25;;;;;;;7.62;63.91;100812.56;5028786;28;20033;-81
2024/02/16 07:56:12;;;;;;;14.82;8.38;;;;;;;7.69;63.28;100800.22;5036753;28;20029;-80
2024/02/16 07:58:38;;;;;;;10.88;6.80;;;;;;;7.60;62.63;100794.19;5030378;28;20526;-80
2024/02/16 08:01:03;;;;;;;13.25;7.40;;;;;;;7.85;62.68;100818.63;5029405;28;20021;-80
2024/02/16 08:03:29;;;;;;;13.20;8.63;;;;;;;7.88;61.77;100792.72;5030558;28;20508;-79
2024/02/16 08:05:55;;;;;;;17.65;10.07;;;;;;;8.23;62.17;100820.34;5019200;28;20045;-80
2024/02/16 08:08:23;;;;;;;13.55;7.70;;;;;;;8.25;61.71;100818.34;5025594;28;20033;-80
2024/02/16 08:10:48;;;;;;;12.13;7.28;;;;;;;8.29;62.11;100814.31;5027878;28;20849;-79
2024/02/16 08:13:14;;;;;;;13.32;6.80;;;;;;;8.15;61.04;100802.69;5036497;28;20627;-79
2024/02/16 08:15:39;;;;;;;10.35;6.43;;;;;;;8.23;61.91;100821.19;5040045;28;20048;-80
2024/02/16 08:18:05;;;;;;;13.15;7.32;;;;;;;8.37;61.05;100816.03;5035298;28;20026;-81
2024/02/16 08:20:31;;;;;;;13.35;7.03;;;;;;;8.37;61.68;100784.97;5030294;28;20075;-78
2024/02/16 08:22:57;;;;;;;13.55;7.53;;;;;;;8.32;61.29;100784.72;5030456;28;21030;-78
2024/02/16 08:25:23;;;;;;;13.93;7.13;;;;;;;8.53;60.41;100789.28;5029832;28;20475;-79
2024/02/16 08:27:49;;;;;;;18.40;11.35;;;;;;;8.68;60.60;100807.00;5030080;28;20053;-79
2024/02/16 08:30:15;;;;;;;14.30;8.73;;;;;;;8.70;60.26;100787.19;5030022;28;20032;-80
2024/02/16 08:32:40;;;;;;;17.33;9.60;;;;;;;9.01;59.58;100796.69;5029864;28;20021;-80
2024/02/16 08:35:06;;;;;;;14.50;8.75;;;;;;;9.07;58.15;100800.44;5029704;28;20052;-80
2024/02/16 08:37:32;;;;;;;16.30;8.85;;;;;;;9.16;58.55;100810.78;5030138;28;20029;-80
2024/02/16 08:39:57;;;;;;;15.82;8.50;;;;;;;9.51;58.21;100826.81;5029666;28;20037;-80
2024/02/16 08:42:23;;;;;;;16.92;10.32;;;;;;;9.74;56.91;100823.91;5041882;28;20071;-79
2024/02/16 08:44:49;;;;;;;20.40;10.48;;;;;;;9.68;57.11;100797.25;5040840;28;20132;-80
2024/02/16 08:47:15;;;;;;;15.45;8.32;;;;;;;9.80;57.81;100806.34;5029356;28;20045;-79
2024/02/16 08:49:42;;;;;;;10.85;5.80;;;;;;;9.79;56.68;100812.69;5028594;28;20471;-79
2024/02/16 08:52:08;;;;;;;15.68;9.70;;;;;;;10.11;56.22;100823.72;5036100;28;20028;-80
2024/02/16 08:54:33;;;;;;;15.52;8.55;;;;;;;10.32;56.41;100829.00;5029736;28;20025;-80
2024/02/16 08:56:59;;;;;;;17.27;10.40;;;;;;;10.46;55.78;100819.19;5027289;28;20022;-80
2024/02/16 08:59:26;;;;;;;15.38;9.38;;;;;;;10.61;54.89;100832.38;5030449;28;20033;-80
2024/02/16 09:01:51;;;;;;;42.90;26.00;;;;;;;10.85;55.90;100826.50;5029926;28;20033;-80
2024/02/16 09:04:17;;;;;;;24.30;14.15;;;;;;;11.05;54.52;100833.72;5035807;28;20422;-79
2024/02/16 09:06:42;;;;;;;17.17;8.82;;;;;;;10.83;53.65;100801.88;5024845;28;20045;-80
2024/02/16 09:09:08;;;;;;;14.73;8.52;;;;;;;11.14;53.22;100808.47;5029081;28;20087;-80
2024/02/16 09:11:36;;;;;;;13.38;7.88;;;;;;;11.65;51.19;100804.38;5029313;28;20108;-80
2024/02/16 09:14:02;;;;;;;16.33;9.70;;;;;;;12.23;50.76;100828.50;5029030;28;20418;-79
2024/02/16 09:16:27;;;;;;;12.82;8.25;;;;;;;11.98;50.31;100831.06;5029519;28;20050;-81
2024/02/16 09:18:52;;;;;;;15.57;7.95;;;;;;;12.02;50.53;100816.22;5028927;28;20095;-79
2024/02/16 09:21:19;;;;;;;13.32;8.60;;;;;;;12.17;48.94;100815.16;5029170;28;20033;-79
2024/02/16 09:23:45;;;;;;;10.35;6.40;;;;;;;12.04;49.77;100838.22;5029335;28;20029;-79
2024/02/16 09:26:10;;;;;;;12.63;7.85;;;;;;;12.07;49.39;100802.22;5027877;28;20124;-79
2024/02/16 09:28:41;;;;;;;13.40;8.45;;;;;;;12.47;50.59;100823.47;5023874;28;20043;-79
2024/02/16 09:31:07;;;;;;;9.80;5.18;;;;;;;12.54;47.48;100818.09;5028709;28;20029;-79
2024/02/16 09:33:33;;;;;;;9.93;5.80;;;;;;;12.21;48.03;100824.41;5028883;28;20109;-79
2024/02/16 09:35:59;;;;;;;11.32;6.38;;;;;;;12.40;47.88;100825.34;5028547;28;20132;-79
2024/02/16 09:38:24;;;;;;;12.13;7.82;;;;;;;12.39;47.51;100827.22;5021503;28;20028;-79
2024/02/16 09:40:50;;;;;;;9.25;5.72;;;;;;;12.49;47.41;100810.72;5029005;28;20039;-79
2024/02/16 09:43:29;;;;;;;9.50;5.90;;;;;;;12.83;47.01;100817.53;5028940;28;20465;-79
2024/02/16 09:45:55;;;;;;;8.40;5.63;;;;;;;12.44;46.41;100800.66;5028436;28;20570;-79
2024/02/16 09:48:22;;;;;;;9.00;5.25;;;;;;;12.60;45.83;100827.94;5022450;28;20037;-79
2024/02/16 09:50:50;;;;;;;15.45;8.55;;;;;;;12.76;46.82;100789.97;5028321;28;20065;-80
2024/02/16 09:53:18;;;;;;;8.65;5.15;;;;;;;12.65;45.36;100796.84;5028493;28;20491;-79
2024/02/16 09:55:45;;;;;;;7.65;4.80;;;;;;;12.82;45.17;100783.75;5028577;28;20033;-79
2024/02/16 09:58:16;;;;;;;8.30;5.60;;;;;;;13.06;45.31;100794.72;5028368;28;20774;-79
2024/02/16 10:00:42;;;;;;;10.88;6.20;;;;;;;13.01;45.84;100778.47;5013970;28;20175;-79
2024/02/16 10:03:10;;;;;;;8.20;4.30;;;;;;;13.32;43.87;100808.97;5026906;28;20124;-79
2024/02/16 10:05:35;;;;;;;9.90;5.00;;;;;;;12.97;44.98;100779.94;5021321;28;20033;-79
2024/02/16 10:08:11;;;;;;;8.85;4.90;;;;;;;13.00;45.98;100791.06;5043394;28;20103;-79
2024/02/16 10:10:37;;;;;;;7.95;4.70;;;;;;;12.85;45.17;100775.31;5029319;28;20029;-79
2024/02/16 10:13:04;;;;;;;7.53;4.90;;;;;;;12.94;44.71;100777.72;5020988;28;20033;-79
2024/02/16 10:15:30;;;;;;;8.15;5.07;;;;;;;13.09;44.48;100788.94;5011179;28;20037;-79
2024/02/16 10:18:02;;;;;;;11.27;6.15;;;;;;;13.04;43.66;100780.75;5026598;28;20025;-78
2024/02/16 10:20:32;;;;;;;12.40;6.47;;;;;;;13.25;45.36;100782.22;5027719;28;20129;-79
2024/02/16 10:23:10;;;;;;;10.25;6.32;;;;;;;13.45;43.31;100777.53;5022057;28;20021;-79
2024/02/16 10:25:37;;;;;;;10.27;6.10;;;;;;;13.96;43.16;100772.88;5012759;28;20029;-79
2024/02/16 10:28:14;;;;;;;12.18;6.80;;;;;;;13.58;43.22;100773.09;5027818;28;20029;-79
2024/02/16 10:30:44;;;;;;;10.00;5.68;;;;;;;13.55;42.89;100755.59;5026804;28;20418;-79
2024/02/16 10:33:12;;;;;;;11.75;6.13;;;;;;;14.14;42.17;100768.53;5022940;28;20026;-79
2024/02/16 10:35:38;;;;;;;12.10;6.10;;;;;;;14.36;43.14;100732.13;5012516;28;20502;-80
2024/02/16 10:38:10;;;;;;;9.93;5.70;;;;;;;14.49;39.73;100744.56;5027831;28;20112;-79
2024/02/16 10:40:42;;;;;;;9.88;5.03;;;;;;;14.77;39.01;100737.78;5026215;28;20037;-79
2024/02/16 10:43:09;;;;;;;7.95;4.95;;;;;;;15.10;40.42;100769.50;5027653;28;20534;-79
2024/02/16 10:45:36;;;;;;;8.30;5.15;;;;;;;14.98;39.28;100752.56;5026000;28;20041;-79
2024/02/16 10:48:04;;;;;;;7.13;4.57;;;;;;;14.66;39.66;100742.09;5026226;28;20490;-79
2024/02/16 10:50:30;;;;;;;8.23;4.70;;;;;;;15.30;39.40;100723.47;5027033;28;20077;-79
2024/02/16 10:52:58;;;;;;;7.13;4.22;;;;;;;15.51;38.94;100770.47;5027116;28;20115;-79
2024/02/16 10:55:24;;;;;;;6.35;3.50;;;;;;;15.33;38.24;100757.16;5027655;28;20078;-78
2024/02/16 10:57:50;;;;;;;7.53;4.57;;;;;;;15.23;38.47;100761.22;5008122;28;20064;-79
2024/02/16 11:00:17;;;;;;;7.13;3.42;;;;;;;15.30;38.48;100736.09;5021733;28;20558;-79
2024/02/16 11:03:01;;;;;;;6.00;3.15;;;;;;;16.23;37.40;100761.25;5026012;28;20086;-79
2024/02/16 11:05:36;;;;;;;5.63;3.47;;;;;;;16.54;35.92;100759.94;5027206;28;20029;-79
2024/02/16 11:08:11;;;;;;;5.22;3.15;;;;;;;16.55;35.79;100761.59;5008560;28;20068;-79
2024/02/16 11:10:37;;;;;;;4.85;3.38;;;;;;;16.90;35.90;100732.81;5027776;28;20034;-79
2024/02/16 11:13:07;;;;;;;5.40;2.90;;;;;;;17.63;34.73;100749.81;5027296;28;20060;-79
2024/02/16 11:15:35;;;;;;;4.93;2.88;;;;;;;17.57;34.99;100746.28;5026957;28;20041;-79
2024/02/16 11:18:02;;;;;;;5.45;3.53;;;;;;;17.90;33.81;100744.56;5028898;28;20114;-79
2024/02/16 11:20:28;;;;;;;57.28;47.92;;;;;;;18.36;33.30;100720.78;5031160;28;20034;-79
2024/02/16 11:22:53;;;;;;;11.55;7.25;;;;;;;18.77;34.20;100731.97;5031192;28;20033;-79